createdAt,value
2018-04-22T00:00:53.267Z,12.38
2018-04-22T00:02:00.502Z,12.37
2018-04-22T00:03:06.571Z,12.37
2018-04-22T00:04:13.553Z,12.37
2018-04-22T00:05:19.819Z,12.25
2018-04-22T00:06:26.139Z,12.25
2018-04-22T00:07:33.829Z,12.27
2018-04-22T00:08:41.689Z,12.12
2018-04-22T00:09:47.989Z,12.09
2018-04-22T00:10:53.952Z,12.04
2018-04-22T00:12:01.194Z,11.76
2018-04-22T00:13:08.315Z,11.62
2018-04-22T00:14:14.716Z,11.50
2018-04-22T00:15:21.386Z,11.52
2018-04-22T00:16:27.930Z,11.60
2018-04-22T00:17:36.345Z,11.71
2018-04-22T00:18:42.649Z,11.73
2018-04-22T00:19:48.967Z,11.75
2018-04-22T00:20:55.449Z,11.79
2018-04-22T00:22:01.765Z,11.82
2018-04-22T00:23:10.155Z,11.90
2018-04-22T00:24:17.203Z,11.99
2018-04-22T00:25:24.486Z,12.00
2018-04-22T00:26:30.775Z,11.97
2018-04-22T00:27:37.058Z,12.03
2018-04-22T00:28:43.321Z,12.01
2018-04-22T00:29:49.935Z,12.03
2018-04-22T00:30:56.252Z,12.02
2018-04-22T00:32:02.561Z,11.87
2018-04-22T00:33:08.924Z,11.78
2018-04-22T00:34:15.418Z,11.79
2018-04-22T00:35:21.687Z,11.85
2018-04-22T00:36:33.206Z,11.82
2018-04-22T00:37:39.274Z,11.80
2018-04-22T00:38:48.424Z,11.83
2018-04-22T00:39:54.635Z,11.84
2018-04-22T00:41:00.953Z,11.88
2018-04-22T00:42:07.271Z,11.87
2018-04-22T00:43:13.278Z,11.88
2018-04-22T00:44:19.554Z,11.84
2018-04-22T00:45:27.084Z,11.78
2018-04-22T00:46:34.127Z,11.69
2018-04-22T00:47:40.866Z,11.56
2018-04-22T00:48:47.418Z,11.44
2018-04-22T00:49:53.667Z,11.26
2018-04-22T00:50:59.674Z,11.33
2018-04-22T00:52:05.521Z,11.44
2018-04-22T00:53:11.602Z,11.57
2018-04-22T00:54:24.023Z,11.59
2018-04-22T00:55:30.243Z,11.68
2018-04-22T00:56:36.470Z,11.73
2018-04-22T00:57:42.798Z,11.81
2018-04-22T00:58:49.678Z,11.71
2018-04-22T00:59:56.075Z,11.59
2018-04-22T01:01:05.408Z,11.66
2018-04-22T01:02:11.841Z,11.76
2018-04-22T01:03:18.767Z,11.83
2018-04-22T01:04:25.068Z,11.72
2018-04-22T01:05:31.243Z,11.53
2018-04-22T01:06:37.135Z,11.59
2018-04-22T01:07:43.401Z,11.58
2018-04-22T01:08:50.479Z,11.53
2018-04-22T01:09:57.899Z,11.54
2018-04-22T01:11:04.100Z,11.63
2018-04-22T01:12:10.133Z,11.67
2018-04-22T01:13:17.363Z,11.69
2018-04-22T01:14:23.596Z,11.73
2018-04-22T01:15:30.803Z,11.62
2018-04-22T01:16:37.643Z,11.43
2018-04-22T01:17:43.686Z,11.13
2018-04-22T01:18:50.112Z,10.99
2018-04-22T01:19:56.287Z,10.98
2018-04-22T01:21:02.279Z,10.95
2018-04-22T01:22:08.280Z,10.87
2018-04-22T01:23:14.538Z,10.78
2018-04-22T01:24:20.547Z,10.66
2018-04-22T01:25:28.878Z,10.55
2018-04-22T01:26:37.816Z,10.57
2018-04-22T01:27:44.056Z,10.82
2018-04-22T01:28:49.984Z,11.02
2018-04-22T01:29:57.200Z,11.05
2018-04-22T01:31:03.561Z,11.14
2018-04-22T01:32:09.814Z,11.32
2018-04-22T01:33:16.145Z,11.32
2018-04-22T01:34:22.411Z,11.24
2018-04-22T01:35:28.963Z,11.14
2018-04-22T01:36:34.866Z,11.06
2018-04-22T01:37:41.153Z,11.04
2018-04-22T01:38:47.412Z,10.97
2018-04-22T01:39:53.875Z,10.95
2018-04-22T01:41:02.125Z,10.97
2018-04-22T01:42:10.342Z,11.10
2018-04-22T01:43:16.655Z,11.09
2018-04-22T01:44:22.598Z,11.10
2018-04-22T01:45:29.233Z,11.13
2018-04-22T01:46:35.204Z,11.21
2018-04-22T01:47:42.121Z,11.23
2018-04-22T01:48:48.411Z,11.31
2018-04-22T01:49:54.368Z,11.35
2018-04-22T01:51:00.604Z,11.39
2018-04-22T01:52:06.885Z,11.39
2018-04-22T01:53:13.152Z,11.43
2018-04-22T01:54:20.304Z,11.36
2018-04-22T01:55:26.691Z,11.07
2018-04-22T01:56:32.951Z,11.05
2018-04-22T01:57:40.127Z,11.05
2018-04-22T01:58:47.264Z,10.94
2018-04-22T01:59:53.414Z,10.87
2018-04-22T02:00:59.442Z,10.93
2018-04-22T02:02:05.757Z,10.98
2018-04-22T02:03:12.056Z,11.04
2018-04-22T02:04:18.107Z,11.10
2018-04-22T02:05:24.313Z,11.04
2018-04-22T02:06:30.965Z,11.06
2018-04-22T02:07:36.911Z,11.00
2018-04-22T02:08:43.235Z,11.06
2018-04-22T02:09:49.528Z,11.10
2018-04-22T02:10:55.851Z,11.16
2018-04-22T02:12:02.083Z,11.21
2018-04-22T02:13:08.031Z,11.20
2018-04-22T02:14:14.290Z,11.18
2018-04-22T02:15:20.363Z,11.09
2018-04-22T02:16:26.378Z,11.05
2018-04-22T02:17:32.675Z,10.90
2018-04-22T02:18:38.715Z,10.86
2018-04-22T02:19:45.000Z,10.91
2018-04-22T02:20:50.851Z,11.00
2018-04-22T02:21:57.099Z,11.08
2018-04-22T02:23:03.331Z,11.06
2018-04-22T02:24:09.675Z,11.07
2018-04-22T02:25:17.328Z,11.11
2018-04-22T02:26:25.147Z,11.09
2018-04-22T02:27:31.443Z,11.06
2018-04-22T02:28:37.652Z,10.98
2018-04-22T02:29:43.979Z,10.94
2018-04-22T02:30:50.277Z,10.92
2018-04-22T02:31:56.458Z,10.91
2018-04-22T02:33:05.303Z,10.87
2018-04-22T02:34:11.804Z,10.92
2018-04-22T02:35:17.774Z,10.95
2018-04-22T02:36:24.087Z,10.98
2018-04-22T02:37:34.459Z,10.95
2018-04-22T02:38:40.734Z,10.82
2018-04-22T02:39:47.032Z,10.90
2018-04-22T02:40:53.323Z,10.84
2018-04-22T02:41:59.831Z,10.87
2018-04-22T02:43:06.069Z,10.89
2018-04-22T02:44:14.530Z,10.79
2018-04-22T02:45:20.932Z,10.68
2018-04-22T02:46:27.883Z,10.68
2018-04-22T02:47:36.126Z,10.73
2018-04-22T02:48:42.246Z,10.76
2018-04-22T02:49:48.580Z,10.70
2018-04-22T02:50:54.832Z,10.71
2018-04-22T02:52:02.756Z,10.76
2018-04-22T02:53:08.992Z,10.74
2018-04-22T02:54:15.348Z,10.74
2018-04-22T02:55:22.161Z,10.73
2018-04-22T02:56:28.857Z,10.73
2018-04-22T02:57:35.175Z,10.65
2018-04-22T02:58:41.483Z,10.73
2018-04-22T02:59:47.799Z,10.73
2018-04-22T03:00:54.996Z,10.57
2018-04-22T03:02:01.238Z,10.51
2018-04-22T03:03:07.528Z,10.32
2018-04-22T03:04:16.334Z,10.20
2018-04-22T03:05:22.839Z,10.12
2018-04-22T03:06:29.332Z,10.08
2018-04-22T03:07:35.532Z,10.07
2018-04-22T03:08:41.792Z,9.98
2018-04-22T03:09:48.093Z,9.82
2018-04-22T03:10:55.304Z,9.72
2018-04-22T03:12:02.275Z,9.76
2018-04-22T03:13:08.549Z,9.98
2018-04-22T03:14:14.559Z,10.18
2018-04-22T03:15:20.856Z,10.36
2018-04-22T03:16:27.065Z,10.48
2018-04-22T03:17:33.084Z,10.58
2018-04-22T03:18:39.427Z,10.59
2018-04-22T03:19:48.540Z,10.52
2018-04-22T03:20:57.231Z,10.62
2018-04-22T03:22:03.599Z,10.69
2018-04-22T03:23:09.844Z,10.75
2018-04-22T03:24:16.056Z,10.78
2018-04-22T03:25:28.158Z,10.76
2018-04-22T03:26:39.135Z,10.73
2018-04-22T03:27:45.430Z,10.68
2018-04-22T03:28:52.645Z,10.47
2018-04-22T03:29:58.996Z,10.50
2018-04-22T03:31:04.962Z,10.43
2018-04-22T03:32:11.186Z,10.41
2018-04-22T03:33:17.503Z,10.45
2018-04-22T03:34:23.824Z,10.45
2018-04-22T03:35:30.159Z,10.42
2018-04-22T03:36:36.460Z,10.22
2018-04-22T03:37:42.763Z,10.16
2018-04-22T03:38:49.979Z,10.07
2018-04-22T03:39:56.332Z,10.12
2018-04-22T03:41:02.593Z,10.20
2018-04-22T03:42:08.800Z,10.29
2018-04-22T03:43:15.080Z,10.30
2018-04-22T03:44:21.363Z,10.29
2018-04-22T03:45:27.685Z,10.26
2018-04-22T03:46:34.048Z,10.20
2018-04-22T03:47:40.254Z,10.26
2018-04-22T03:48:48.228Z,10.30
2018-04-22T03:49:54.443Z,10.31
2018-04-22T03:51:03.275Z,10.19
2018-04-22T03:52:09.533Z,10.19
2018-04-22T03:53:16.643Z,10.12
2018-04-22T03:54:22.871Z,10.17
2018-04-22T03:55:28.888Z,10.28
2018-04-22T03:56:35.180Z,10.35
2018-04-22T03:57:40.818Z,10.38
2018-04-22T03:58:47.964Z,10.36
2018-04-22T03:59:54.245Z,10.32
2018-04-22T04:01:01.127Z,10.30
2018-04-22T04:02:07.342Z,10.28
2018-04-22T04:03:13.631Z,10.31
2018-04-22T04:04:19.675Z,10.25
2018-04-22T04:05:26.445Z,10.07
2018-04-22T04:06:35.795Z,10.04
2018-04-22T04:07:44.417Z,10.07
2018-04-22T04:08:51.204Z,10.07
2018-04-22T04:09:57.246Z,10.09
2018-04-22T04:11:03.471Z,10.04
2018-04-22T04:12:09.791Z,10.10
2018-04-22T04:13:16.136Z,10.13
2018-04-22T04:14:22.390Z,10.01
2018-04-22T04:15:28.651Z,9.90
2018-04-22T04:16:34.924Z,9.89
2018-04-22T04:17:41.434Z,9.81
2018-04-22T04:18:59.457Z,9.86
2018-04-22T04:20:16.727Z,9.99
2018-04-22T04:21:33.874Z,10.05
2018-04-22T04:22:45.457Z,9.77
2018-04-22T04:25:52.042Z,9.65
2018-04-22T04:28:42.705Z,9.94
2018-04-22T04:29:48.885Z,9.97
2018-04-22T04:30:55.663Z,9.92
2018-04-22T04:32:02.839Z,9.87
2018-04-22T04:33:09.095Z,9.84
2018-04-22T04:34:15.975Z,9.94
2018-04-22T04:35:22.291Z,10.00
2018-04-22T04:36:28.513Z,10.03
2018-04-22T04:37:34.727Z,10.05
2018-04-22T04:38:41.058Z,10.04
2018-04-22T04:39:47.357Z,10.04
2018-04-22T04:40:57.909Z,10.00
2018-04-22T04:42:04.200Z,9.86
2018-04-22T04:43:10.504Z,9.83
2018-04-22T04:44:16.972Z,9.84
2018-04-22T04:45:23.259Z,9.85
2018-04-22T04:46:30.156Z,9.90
2018-04-22T04:47:36.043Z,9.96
2018-04-22T04:48:43.182Z,10.03
2018-04-22T04:49:52.056Z,10.10
2018-04-22T04:50:58.273Z,10.14
2018-04-22T04:52:04.578Z,10.06
2018-04-22T04:53:10.584Z,10.04
2018-04-22T04:54:16.706Z,9.96
2018-04-22T04:55:23.162Z,9.92
2018-04-22T04:56:29.270Z,9.90
2018-04-22T04:57:35.759Z,9.85
2018-04-22T04:58:42.571Z,9.73
2018-04-22T04:59:48.639Z,9.85
2018-04-22T05:00:54.874Z,9.94
2018-04-22T05:02:01.086Z,10.05
2018-04-22T05:03:07.394Z,10.16
2018-04-22T05:04:13.693Z,10.31
2018-04-22T05:05:19.941Z,10.39
2018-04-22T05:06:27.259Z,10.50
2018-04-22T05:07:33.286Z,10.56
2018-04-22T05:08:39.567Z,10.45
2018-04-22T05:09:45.861Z,10.53
2018-04-22T05:10:52.114Z,10.66
2018-04-22T05:11:58.426Z,10.81
2018-04-22T05:13:05.117Z,10.95
2018-04-22T05:14:14.947Z,11.13
2018-04-22T05:15:21.176Z,11.17
2018-04-22T05:16:28.455Z,11.22
2018-04-22T05:17:34.770Z,11.29
2018-04-22T05:18:40.844Z,11.33
2018-04-22T05:19:47.111Z,11.36
2018-04-22T05:20:53.433Z,11.41
2018-04-22T05:21:59.772Z,11.45
2018-04-22T05:23:06.019Z,11.46
2018-04-22T05:24:12.326Z,11.50
2018-04-22T05:25:18.643Z,11.54
2018-04-22T05:26:26.067Z,11.57
2018-04-22T05:27:32.707Z,11.60
2018-04-22T05:28:39.004Z,11.65
2018-04-22T05:29:48.066Z,11.76
2018-04-22T05:30:54.873Z,11.77
2018-04-22T05:32:01.879Z,11.67
2018-04-22T05:33:08.092Z,11.62
2018-04-22T05:34:14.391Z,11.71
2018-04-22T05:35:20.650Z,11.87
2018-04-22T05:36:26.910Z,12.00
2018-04-22T05:37:32.942Z,12.09
2018-04-22T05:38:39.219Z,12.19
2018-04-22T05:39:45.491Z,12.25
2018-04-22T05:40:51.710Z,12.24
2018-04-22T05:41:58.052Z,12.32
2018-04-22T05:43:09.841Z,12.25
2018-04-22T05:44:16.089Z,12.07
2018-04-22T05:45:24.367Z,12.12
2018-04-22T05:46:30.587Z,12.20
2018-04-22T05:47:40.134Z,12.33
2018-04-22T05:48:46.457Z,12.44
2018-04-22T05:49:53.002Z,12.53
2018-04-22T05:50:59.298Z,12.43
2018-04-22T05:52:05.535Z,12.33
2018-04-22T05:53:11.783Z,12.43
2018-04-22T05:54:18.005Z,12.45
2018-04-22T05:55:24.319Z,12.60
2018-04-22T05:56:30.532Z,12.51
2018-04-22T05:57:36.863Z,12.27
2018-04-22T05:58:43.150Z,12.20
2018-04-22T05:59:49.463Z,12.29
2018-04-22T06:00:57.779Z,12.47
2018-04-22T06:02:05.096Z,12.70
2018-04-22T06:03:15.161Z,12.83
2018-04-22T06:04:21.556Z,12.69
2018-04-22T06:05:28.380Z,12.68
2018-04-22T06:06:34.628Z,12.87
2018-04-22T06:07:40.962Z,13.05
2018-04-22T06:08:48.030Z,13.08
2018-04-22T06:09:54.279Z,12.81
2018-04-22T06:11:00.557Z,12.60
2018-04-22T06:12:08.463Z,12.64
2018-04-22T06:13:14.750Z,12.58
2018-04-22T06:14:25.355Z,12.53
2018-04-22T06:15:32.513Z,12.52
2018-04-22T06:16:39.056Z,12.52
2018-04-22T06:17:45.645Z,12.54
2018-04-22T06:18:52.480Z,12.68
2018-04-22T06:19:59.919Z,12.77
2018-04-22T06:21:08.343Z,12.87
2018-04-22T06:22:15.342Z,12.94
2018-04-22T06:23:22.022Z,13.01
2018-04-22T06:24:29.730Z,12.96
2018-04-22T06:25:36.484Z,13.12
2018-04-22T06:26:42.750Z,13.31
2018-04-22T06:27:50.212Z,13.43
2018-04-22T06:28:56.910Z,13.53
2018-04-22T06:30:03.203Z,13.68
2018-04-22T06:31:09.553Z,13.72
2018-04-22T06:32:15.894Z,13.89
2018-04-22T06:33:22.307Z,13.94
2018-04-22T06:34:28.652Z,14.08
2018-04-22T06:35:38.512Z,14.20
2018-04-22T06:36:44.857Z,14.17
2018-04-22T06:37:50.644Z,14.07
2018-04-22T06:38:56.924Z,14.16
2018-04-22T06:40:03.489Z,14.35
2018-04-22T06:41:10.262Z,14.47
2018-04-22T06:42:16.771Z,14.47
2018-04-22T06:43:23.101Z,14.37
2018-04-22T06:44:29.524Z,14.25
2018-04-22T06:45:36.061Z,14.37
2018-04-22T06:46:43.069Z,14.54
2018-04-22T06:47:49.287Z,14.67
2018-04-22T06:48:55.495Z,14.59
2018-04-22T06:50:02.174Z,14.40
2018-04-22T06:51:08.827Z,14.39
2018-04-22T06:52:15.752Z,14.45
2018-04-22T06:53:22.616Z,14.59
2018-04-22T06:54:29.085Z,14.73
2018-04-22T06:55:40.498Z,14.75
2018-04-22T06:56:49.258Z,14.75
2018-04-22T06:57:56.313Z,14.91
2018-04-22T06:59:02.839Z,15.07
2018-04-22T07:00:09.069Z,15.09
2018-04-22T07:01:16.274Z,15.03
2018-04-22T07:02:23.074Z,15.08
2018-04-22T07:03:29.720Z,15.21
2018-04-22T07:04:36.355Z,15.28
2018-04-22T07:05:42.647Z,15.24
2018-04-22T07:06:49.163Z,15.35
2018-04-22T07:07:55.883Z,15.39
2018-04-22T07:09:02.374Z,15.43
2018-04-22T07:10:09.739Z,15.47
2018-04-22T07:11:16.355Z,15.42
2018-04-22T07:12:23.080Z,15.50
2018-04-22T07:13:29.593Z,15.56
2018-04-22T07:14:36.209Z,15.50
2018-04-22T07:15:42.452Z,15.41
2018-04-22T07:16:50.048Z,15.23
2018-04-22T07:17:57.245Z,15.27
2018-04-22T07:19:03.813Z,15.20
2018-04-22T07:20:11.355Z,15.28
2018-04-22T07:21:18.156Z,15.34
2018-04-22T07:22:24.694Z,15.43
2018-04-22T07:23:31.694Z,15.46
2018-04-22T07:24:37.729Z,15.44
2018-04-22T07:25:44.654Z,15.36
2018-04-22T07:26:51.186Z,15.33
2018-04-22T07:27:58.913Z,15.43
2018-04-22T07:29:06.044Z,15.50
2018-04-22T07:30:12.782Z,15.69
2018-04-22T07:31:19.588Z,15.75
2018-04-22T07:32:26.337Z,15.78
2018-04-22T07:33:33.339Z,15.92
2018-04-22T07:34:39.958Z,15.93
2018-04-22T07:35:46.794Z,16.06
2018-04-22T07:36:57.879Z,16.16
2018-04-22T07:38:08.555Z,16.28
2018-04-22T07:39:15.134Z,16.24
2018-04-22T07:40:21.691Z,16.31
2018-04-22T07:41:30.053Z,16.44
2018-04-22T07:43:56.242Z,16.52
2018-04-22T07:45:02.571Z,16.61
2018-04-22T07:46:10.881Z,16.71
2018-04-22T07:47:17.915Z,16.74
2018-04-22T07:48:24.431Z,16.79
2018-04-22T07:49:30.745Z,16.86
2018-04-22T07:50:38.176Z,16.90
2018-04-22T07:51:44.417Z,16.97
2018-04-22T07:52:55.794Z,16.97
2018-04-22T07:54:02.183Z,16.99
2018-04-22T07:55:09.596Z,17.08
2018-04-22T07:56:17.995Z,17.05
2018-04-22T07:57:24.875Z,16.96
2018-04-22T07:58:31.395Z,16.85
2018-04-22T07:59:38.355Z,16.93
2018-04-22T08:00:45.883Z,17.01
2018-04-22T08:01:52.978Z,17.18
2018-04-22T08:03:00.695Z,17.30
2018-04-22T08:04:07.196Z,17.37
2018-04-22T08:05:14.003Z,17.44
2018-04-22T08:06:21.001Z,17.52
2018-04-22T08:07:28.357Z,17.48
2018-04-22T08:08:34.776Z,17.62
2018-04-22T08:09:41.069Z,17.77
2018-04-22T08:10:48.328Z,17.92
2018-04-22T08:11:55.828Z,18.00
2018-04-22T08:13:02.448Z,18.04
2018-04-22T08:14:10.571Z,18.20
2018-04-22T08:15:17.126Z,17.98
2018-04-22T08:16:24.638Z,17.97
2018-04-22T08:17:30.958Z,18.05
2018-04-22T08:18:37.904Z,18.16
2018-04-22T08:19:44.728Z,18.15
2018-04-22T08:20:51.247Z,18.18
2018-04-22T08:21:57.998Z,18.33
2018-04-22T08:23:04.192Z,18.45
2018-04-22T08:24:10.433Z,18.44
2018-04-22T08:25:16.735Z,18.57
2018-04-22T08:26:24.481Z,18.61
2018-04-22T08:27:31.684Z,18.70
2018-04-22T08:28:37.939Z,18.72
2018-04-22T08:29:44.229Z,18.80
2018-04-22T08:30:50.551Z,18.86
2018-04-22T08:31:58.666Z,18.78
2018-04-22T08:33:04.863Z,18.86
2018-04-22T08:34:13.382Z,18.99
2018-04-22T08:35:19.951Z,18.98
2018-04-22T08:36:26.467Z,19.11
2018-04-22T08:37:32.757Z,19.17
2018-04-22T08:38:39.047Z,19.22
2018-04-22T08:39:49.209Z,19.37
2018-04-22T08:41:00.059Z,19.46
2018-04-22T08:42:07.907Z,19.47
2018-04-22T08:43:14.164Z,19.54
2018-04-22T08:44:20.450Z,19.66
2018-04-22T08:45:26.735Z,19.67
2018-04-22T08:46:33.051Z,19.72
2018-04-22T08:47:40.420Z,19.71
2018-04-22T08:48:46.638Z,19.42
2018-04-22T08:49:52.904Z,19.52
2018-04-22T08:50:59.279Z,19.56
2018-04-22T08:52:05.568Z,19.58
2018-04-22T08:53:13.671Z,19.48
2018-04-22T08:54:19.873Z,19.48
2018-04-22T08:55:26.307Z,19.51
2018-04-22T08:56:32.603Z,19.52
2018-04-22T08:57:43.315Z,19.68
2018-04-22T08:58:50.208Z,19.52
2018-04-22T08:59:56.459Z,19.43
2018-04-22T09:01:02.673Z,19.45
2018-04-22T09:02:08.930Z,19.51
2018-04-22T09:03:15.504Z,19.57
2018-04-22T09:04:22.050Z,19.62
2018-04-22T09:05:28.319Z,19.72
2018-04-22T09:06:34.633Z,19.77
2018-04-22T09:07:40.882Z,19.79
2018-04-22T09:08:49.540Z,19.96
2018-04-22T09:09:56.005Z,20.13
2018-04-22T09:11:02.267Z,20.16
2018-04-22T09:12:08.585Z,19.87
2018-04-22T09:13:17.013Z,19.82
2018-04-22T09:14:23.230Z,19.97
2018-04-22T09:15:30.513Z,19.99
2018-04-22T09:16:37.796Z,20.10
2018-04-22T09:17:44.991Z,20.11
2018-04-22T09:18:52.262Z,20.22
2018-04-22T09:19:58.540Z,20.30
2018-04-22T09:21:05.533Z,20.34
2018-04-22T09:22:12.619Z,20.41
2018-04-22T09:23:19.087Z,20.46
2018-04-22T09:24:26.411Z,20.54
2018-04-22T09:25:34.794Z,20.59
2018-04-22T09:26:44.761Z,20.58
2018-04-22T09:27:51.532Z,20.73
2018-04-22T09:28:59.303Z,20.70
2018-04-22T09:30:05.874Z,20.74
2018-04-22T09:31:12.332Z,20.78
2018-04-22T09:32:19.302Z,20.84
2018-04-22T09:33:25.729Z,20.88
2018-04-22T09:34:32.082Z,20.97
2018-04-22T09:35:39.275Z,21.07
2018-04-22T09:36:47.577Z,21.13
2018-04-22T09:37:55.120Z,21.23
2018-04-22T09:39:01.713Z,21.33
2018-04-22T09:40:08.718Z,21.30
2018-04-22T09:41:16.464Z,21.20
2018-04-22T09:42:24.258Z,21.12
2018-04-22T09:43:31.440Z,21.15
2018-04-22T09:44:39.800Z,21.23
2018-04-22T09:45:47.789Z,21.37
2018-04-22T09:46:54.733Z,21.53
2018-04-22T09:48:01.625Z,21.66
2018-04-22T09:49:07.926Z,21.71
2018-04-22T09:50:14.834Z,21.50
2018-04-22T09:51:23.043Z,20.70
2018-04-22T09:52:29.715Z,20.91
2018-04-22T09:53:36.940Z,21.12
2018-04-22T09:54:48.079Z,21.32
2018-04-22T09:55:55.697Z,21.39
2018-04-22T09:57:01.975Z,21.57
2018-04-22T09:58:08.307Z,21.67
2018-04-22T09:59:14.614Z,21.67
2018-04-22T10:00:26.973Z,21.64
2018-04-22T10:01:36.580Z,21.35
2018-04-22T10:02:49.336Z,21.57
2018-04-22T10:04:05.426Z,21.74
2018-04-22T10:05:16.270Z,21.88
2018-04-22T10:06:22.552Z,21.83
2018-04-22T10:07:28.886Z,21.71
2018-04-22T10:08:35.194Z,21.81
2018-04-22T10:09:41.486Z,21.93
2018-04-22T10:10:48.465Z,22.03
2018-04-22T10:11:54.746Z,22.09
2018-04-22T10:13:01.988Z,22.10
2018-04-22T10:14:08.302Z,22.33
2018-04-22T10:15:14.567Z,22.12
2018-04-22T10:16:21.406Z,22.24
2018-04-22T10:17:27.743Z,22.26
2018-04-22T10:18:34.061Z,22.28
2018-04-22T10:19:40.348Z,22.18
2018-04-22T10:20:47.893Z,22.13
2018-04-22T10:21:56.041Z,22.26
2018-04-22T10:23:02.719Z,22.18
2018-04-22T10:24:08.987Z,22.17
2018-04-22T10:25:15.843Z,22.04
2018-04-22T10:26:22.111Z,22.01
2018-04-22T10:27:30.892Z,21.91
2018-04-22T10:28:37.607Z,22.06
2018-04-22T10:29:44.707Z,22.19
2018-04-22T10:30:50.989Z,22.45
2018-04-22T10:31:57.228Z,22.70
2018-04-22T10:33:03.481Z,22.79
2018-04-22T10:34:09.787Z,22.79
2018-04-22T10:35:16.014Z,22.66
2018-04-22T10:36:25.316Z,22.70
2018-04-22T10:37:31.550Z,22.78
2018-04-22T10:38:37.774Z,22.81
2018-04-22T10:39:44.091Z,22.87
2018-04-22T10:40:50.391Z,22.49
2018-04-22T10:41:56.619Z,22.65
2018-04-22T10:43:02.907Z,22.75
2018-04-22T10:44:09.149Z,22.82
2018-04-22T10:45:15.427Z,22.87
2018-04-22T10:46:22.356Z,22.99
2018-04-22T10:47:28.273Z,22.97
2018-04-22T10:48:34.607Z,22.95
2018-04-22T10:49:42.188Z,23.04
2018-04-22T10:50:48.467Z,23.13
2018-04-22T10:51:56.149Z,23.31
2018-04-22T10:53:03.559Z,23.33
2018-04-22T10:54:09.964Z,23.24
2018-04-22T10:55:16.226Z,23.35
2018-04-22T10:56:22.823Z,23.31
2018-04-22T10:57:29.207Z,23.37
2018-04-22T10:58:35.494Z,23.47
2018-04-22T10:59:41.826Z,23.46
2018-04-22T11:00:48.088Z,23.51
2018-04-22T11:01:54.307Z,23.60
2018-04-22T11:03:00.571Z,23.61
2018-04-22T11:04:06.771Z,23.56
2018-04-22T11:05:13.064Z,23.53
2018-04-22T11:06:19.586Z,23.56
2018-04-22T11:07:27.642Z,23.65
2018-04-22T11:08:35.647Z,23.73
2018-04-22T11:09:42.804Z,23.79
2018-04-22T11:10:50.045Z,23.69
2018-04-22T11:11:56.230Z,23.74
2018-04-22T11:13:02.469Z,23.84
2018-04-22T11:14:08.405Z,23.83
2018-04-22T11:15:14.679Z,24.00
2018-04-22T11:16:20.869Z,24.12
2018-04-22T11:17:27.194Z,24.15
2018-04-22T11:18:33.556Z,24.10
2018-04-22T11:19:39.634Z,24.11
2018-04-22T11:20:46.644Z,24.04
2018-04-22T11:21:52.959Z,24.05
2018-04-22T11:22:59.296Z,24.03
2018-04-22T11:24:05.951Z,24.13
2018-04-22T11:25:12.174Z,24.24
2018-04-22T11:26:18.407Z,24.16
2018-04-22T11:27:25.468Z,24.11
2018-04-22T11:28:32.884Z,24.01
2018-04-22T11:29:39.033Z,23.93
2018-04-22T11:30:45.289Z,23.95
2018-04-22T11:31:51.607Z,23.96
2018-04-22T11:32:57.624Z,24.14
2018-04-22T11:34:03.757Z,24.31
2018-04-22T11:35:10.015Z,24.35
2018-04-22T11:36:16.245Z,24.44
2018-04-22T11:37:22.578Z,24.48
2018-04-22T11:38:28.860Z,24.44
2018-04-22T11:39:35.211Z,24.37
2018-04-22T11:40:41.487Z,24.36
2018-04-22T11:41:47.823Z,24.28
2018-04-22T11:42:53.828Z,24.32
2018-04-22T11:44:00.756Z,24.31
2018-04-22T11:45:07.047Z,24.45
2018-04-22T11:46:13.968Z,24.43
2018-04-22T11:47:20.390Z,24.43
2018-04-22T11:48:26.728Z,24.53
2018-04-22T11:49:33.045Z,24.63
2018-04-22T11:50:39.023Z,24.69
2018-04-22T11:51:45.352Z,24.76
2018-04-22T11:52:51.647Z,24.75
2018-04-22T11:53:57.721Z,24.62
2018-04-22T11:55:03.811Z,24.71
2018-04-22T11:56:10.312Z,24.82
2018-04-22T11:57:16.877Z,24.87
2018-04-22T11:58:23.300Z,24.86
2018-04-22T11:59:31.715Z,24.77
2018-04-22T12:00:38.710Z,24.81
2018-04-22T12:01:44.711Z,24.84
2018-04-22T12:02:50.696Z,24.88
2018-04-22T12:03:56.359Z,24.98
2018-04-22T12:05:02.333Z,25.03
2018-04-22T12:06:08.641Z,24.86
2018-04-22T12:07:14.638Z,24.91
2018-04-22T12:08:20.618Z,24.97
2018-04-22T12:09:26.673Z,24.82
2018-04-22T12:10:33.398Z,24.73
2018-04-22T12:11:39.362Z,24.66
2018-04-22T12:12:45.254Z,24.85
2018-04-22T12:13:51.308Z,24.88
2018-04-22T12:14:57.402Z,24.94
2018-04-22T12:16:04.214Z,25.03
2018-04-22T12:17:10.306Z,25.13
2018-04-22T12:18:16.327Z,25.12
2018-04-22T12:19:22.663Z,25.08
2018-04-22T12:20:29.393Z,25.06
2018-04-22T12:21:35.898Z,25.21
2018-04-22T12:22:41.862Z,25.22
2018-04-22T12:23:48.195Z,25.27
2018-04-22T12:24:54.198Z,25.26
2018-04-22T12:26:00.726Z,25.23
2018-04-22T12:27:06.703Z,25.27
2018-04-22T12:28:12.707Z,25.20
2018-04-22T12:29:18.729Z,25.05
2018-04-22T12:30:24.761Z,24.93
2018-04-22T12:31:30.735Z,24.87
2018-04-22T12:32:37.029Z,24.80
2018-04-22T12:33:43.028Z,24.90
2018-04-22T12:34:49.265Z,24.86
2018-04-22T12:35:55.861Z,24.92
2018-04-22T12:37:03.815Z,24.90
2018-04-22T12:38:09.823Z,25.04
2018-04-22T12:39:15.834Z,25.30
2018-04-22T12:40:23.592Z,25.30
2018-04-22T12:41:29.717Z,25.18
2018-04-22T12:42:35.682Z,25.22
2018-04-22T12:43:41.701Z,25.38
2018-04-22T12:44:47.733Z,25.40
2018-04-22T12:45:53.710Z,25.39
2018-04-22T12:47:00.011Z,25.31
2018-04-22T12:48:05.700Z,25.29
2018-04-22T12:49:11.751Z,25.36
2018-04-22T12:50:18.047Z,25.16
2018-04-22T12:51:26.113Z,25.20
2018-04-22T12:52:34.099Z,25.18
2018-04-22T12:53:40.049Z,25.30
2018-04-22T12:54:46.368Z,25.49
2018-04-22T12:55:52.394Z,25.55
2018-04-22T12:56:58.910Z,25.59
2018-04-22T12:58:04.866Z,25.44
2018-04-22T12:59:10.870Z,25.57
2018-04-22T13:00:16.911Z,25.59
2018-04-22T13:01:22.986Z,25.42
2018-04-22T13:02:28.871Z,25.45
2018-04-22T13:03:34.876Z,25.27
2018-04-22T13:04:40.781Z,25.41
2018-04-22T13:05:46.833Z,25.64
2018-04-22T13:06:52.913Z,25.79
2018-04-22T13:07:59.132Z,25.80
2018-04-22T13:09:04.178Z,25.79
2018-04-22T13:10:11.049Z,25.68
2018-04-22T13:11:17.020Z,25.86
2018-04-22T13:12:26.434Z,25.96
2018-04-22T13:13:32.330Z,25.87
2018-04-22T13:14:38.362Z,25.83
2018-04-22T13:15:44.377Z,25.75
2018-04-22T13:16:50.638Z,25.40
2018-04-22T13:17:56.662Z,25.26
2018-04-22T13:19:02.672Z,25.32
2018-04-22T13:20:08.679Z,25.38
2018-04-22T13:21:14.677Z,25.49
2018-04-22T13:22:20.623Z,25.65
2018-04-22T13:23:26.600Z,25.74
2018-04-22T13:24:32.664Z,25.89
2018-04-22T13:25:38.597Z,25.91
2018-04-22T13:26:44.590Z,25.96
2018-04-22T13:27:55.551Z,25.95
2018-04-22T13:29:01.468Z,25.93
2018-04-22T13:30:07.427Z,25.84
2018-04-22T13:31:13.391Z,25.97
2018-04-22T13:32:19.417Z,26.08
2018-04-22T13:33:25.430Z,26.23
2018-04-22T13:34:31.469Z,26.34
2018-04-22T13:35:38.036Z,26.41
2018-04-22T13:36:43.747Z,26.46
2018-04-22T13:37:49.750Z,26.31
2018-04-22T13:38:55.773Z,26.10
2018-04-22T13:40:01.813Z,25.99
2018-04-22T13:41:08.214Z,25.98
2018-04-22T13:42:14.480Z,25.94
2018-04-22T13:43:21.258Z,25.61
2018-04-22T13:44:28.663Z,25.61
2018-04-22T13:45:34.663Z,25.47
2018-04-22T13:46:40.688Z,25.33
2018-04-22T13:47:46.702Z,25.29
2018-04-22T13:48:52.691Z,25.26
2018-04-22T13:49:58.975Z,25.40
2018-04-22T13:51:05.861Z,25.49
2018-04-22T13:52:11.526Z,25.57
2018-04-22T13:53:17.179Z,25.54
2018-04-22T13:54:23.432Z,25.40
2018-04-22T13:55:29.611Z,25.37
2018-04-22T13:56:35.659Z,25.37
2018-04-22T13:57:41.395Z,25.46
2018-04-22T13:58:47.550Z,25.47
2018-04-22T13:59:55.362Z,25.49
2018-04-22T14:01:01.407Z,25.43
2018-04-22T14:02:07.404Z,25.41
2018-04-22T14:03:13.408Z,25.41
2018-04-22T14:04:19.632Z,25.46
2018-04-22T14:05:25.770Z,25.58
2018-04-22T14:06:31.762Z,25.70
2018-04-22T14:07:37.891Z,25.69
2018-04-22T14:08:44.239Z,25.80
2018-04-22T14:09:50.171Z,25.87
2018-04-22T14:10:56.280Z,25.88
2018-04-22T14:12:03.281Z,25.76
2018-04-22T14:13:09.413Z,25.57
2018-04-22T14:14:15.725Z,25.52
2018-04-22T14:15:21.717Z,25.51
2018-04-22T14:16:28.056Z,25.38
2018-04-22T14:17:34.037Z,25.38
2018-04-22T14:18:40.040Z,25.45
2018-04-22T14:19:51.521Z,25.48
2018-04-22T14:21:02.444Z,25.52
2018-04-22T14:22:09.037Z,25.45
2018-04-22T14:23:16.178Z,25.39
2018-04-22T14:24:23.255Z,25.36
2018-04-22T14:25:31.963Z,25.36
2018-04-22T14:26:39.280Z,25.37